LMML/MLA METAR and TAF weather

Enter ICAO airport designator
Station Type Date Time Source
LMML METAR 2019/02/17 08:15 UTC NOAA

LMML 170815Z 35003KT 9999 FEW035 13/06 Q1030 NOSIG


Station Type Date Time Source
LMML Decoded METAR 2019/02/17 08:15 UTC NOAA

Luqa, Malta (LMML) 35-51N 014-29E 91M
Feb 17, 2019 - 03:15 AM EST / 2019.02.17 0815 UTC
Wind: from the N (350 degrees) at 3 MPH (3 KT):0
Visibility: greater than 7 mile(s):0
Sky conditions: mostly clear
Temperature: 55 F (13 C)
Dew Point: 42 F (6 C)
Relative Humidity: 62%
Pressure (altimeter): 30.42 in. Hg (1030 hPa)
ob: LMML 170815Z 35003KT 9999 FEW035 13/06 Q1030 NOSIG
cycle: 8

Station Type Date Time Source
LMML TAF 2019/02/17 06:46 UTC NOAA

TAF LMML 170500Z 1706/1806 VRB06KT 9999 FEW032


Example: see airport list